sensor_id;sensor_type;location;lat;lon;timestamp;temperature;humidity
21559;DHT22;10940;48.890;8.240;2023-04-23T00:01:36;13.30;99.90
21559;DHT22;10940;48.890;8.240;2023-04-23T00:04:06;13.30;99.90
21559;DHT22;10940;48.890;8.240;2023-04-23T00:06:33;13.30;99.90
21559;DHT22;10940;48.890;8.240;2023-04-23T00:09:00;13.30;99.90
21559;DHT22;10940;48.890;8.240;2023-04-23T00:11:26;13.30;99.90
21559;DHT22;10940;48.890;8.240;2023-04-23T00:13:52;13.20;99.90
21559;DHT22;10940;48.890;8.240;2023-04-23T00:16:19;13.20;99.90
21559;DHT22;10940;48.890;8.240;2023-04-23T00:18:45;13.20;99.90
21559;DHT22;10940;48.890;8.240;2023-04-23T00:21:11;13.20;99.90
21559;DHT22;10940;48.890;8.240;2023-04-23T00:23:37;13.20;99.90
21559;DHT22;10940;48.890;8.240;2023-04-23T00:26:03;13.20;99.90
21559;DHT22;10940;48.890;8.240;2023-04-23T00:28:29;13.10;99.90
21559;DHT22;10940;48.890;8.240;2023-04-23T00:30:54;13.10;99.90
21559;DHT22;10940;48.890;8.240;2023-04-23T00:33:20;13.10;99.90
21559;DHT22;10940;48.890;8.240;2023-04-23T00:35:46;13.10;99.90
21559;DHT22;10940;48.890;8.240;2023-04-23T00:38:11;13.10;99.90
21559;DHT22;10940;48.890;8.240;2023-04-23T00:40:37;13.10;99.90
21559;DHT22;10940;48.890;8.240;2023-04-23T00:43:03;13.00;99.90
21559;DHT22;10940;48.890;8.240;2023-04-23T00:45:29;13.00;99.90
21559;DHT22;10940;48.890;8.240;2023-04-23T00:47:55;13.00;99.90
21559;DHT22;10940;48.890;8.240;2023-04-23T00:50:20;13.00;99.90
21559;DHT22;10940;48.890;8.240;2023-04-23T00:52:46;12.90;99.90
21559;DHT22;10940;48.890;8.240;2023-04-23T00:55:12;12.70;99.90
21559;DHT22;10940;48.890;8.240;2023-04-23T00:57:38;12.90;99.90
21559;DHT22;10940;48.890;8.240;2023-04-23T01:00:05;12.90;99.90
21559;DHT22;10940;48.890;8.240;2023-04-23T01:02:31;12.90;99.90
21559;DHT22;10940;48.890;8.240;2023-04-23T01:04:59;12.90;99.90
21559;DHT22;10940;48.890;8.240;2023-04-23T01:07:26;12.90;99.90
21559;DHT22;10940;48.890;8.240;2023-04-23T01:09:52;12.90;99.90
21559;DHT22;10940;48.890;8.240;2023-04-23T01:12:18;12.80;99.90
21559;DHT22;10940;48.890;8.240;2023-04-23T01:14:44;12.80;99.90
21559;DHT22;10940;48.890;8.240;2023-04-23T01:17:10;12.80;99.90
21559;DHT22;10940;48.890;8.240;2023-04-23T01:19:39;12.90;99.90
21559;DHT22;10940;48.890;8.240;2023-04-23T01:22:14;12.80;99.90
21559;DHT22;10940;48.890;8.240;2023-04-23T01:24:41;12.80;99.90
21559;DHT22;10940;48.890;8.240;2023-04-23T01:27:07;12.80;99.90
21559;DHT22;10940;48.890;8.240;2023-04-23T01:29:34;12.80;99.90
21559;DHT22;10940;48.890;8.240;2023-04-23T01:32:00;12.80;99.90
21559;DHT22;10940;48.890;8.240;2023-04-23T01:34:26;12.80;99.90
21559;DHT22;10940;48.890;8.240;2023-04-23T01:36:53;12.80;99.90
21559;DHT22;10940;48.890;8.240;2023-04-23T01:39:18;12.80;99.90
21559;DHT22;10940;48.890;8.240;2023-04-23T01:41:45;12.70;99.90
21559;DHT22;10940;48.890;8.240;2023-04-23T01:44:11;12.70;99.90
21559;DHT22;10940;48.890;8.240;2023-04-23T01:46:37;12.70;99.90
21559;DHT22;10940;48.890;8.240;2023-04-23T01:49:02;12.70;99.90
21559;DHT22;10940;48.890;8.240;2023-04-23T01:51:29;12.70;99.90
21559;DHT22;10940;48.890;8.240;2023-04-23T01:53:55;12.60;99.90
21559;DHT22;10940;48.890;8.240;2023-04-23T01:56:27;12.70;99.90
21559;DHT22;10940;48.890;8.240;2023-04-23T01:58:55;12.70;99.90
21559;DHT22;10940;48.890;8.240;2023-04-23T02:01:21;12.70;99.90
21559;DHT22;10940;48.890;8.240;2023-04-23T02:03:48;12.70;99.90
21559;DHT22;10940;48.890;8.240;2023-04-23T02:06:14;12.70;99.90
21559;DHT22;10940;48.890;8.240;2023-04-23T02:08:40;12.60;99.90
21559;DHT22;10940;48.890;8.240;2023-04-23T02:11:06;12.60;99.90
21559;DHT22;10940;48.890;8.240;2023-04-23T02:13:32;12.60;99.90
21559;DHT22;10940;48.890;8.240;2023-04-23T02:15:58;12.60;99.90
21559;DHT22;10940;48.890;8.240;2023-04-23T02:18:23;12.60;99.90
21559;DHT22;10940;48.890;8.240;2023-04-23T02:20:49;12.60;99.90
21559;DHT22;10940;48.890;8.240;2023-04-23T02:23:15;12.60;99.90
21559;DHT22;10940;48.890;8.240;2023-04-23T02:25:40;12.60;99.90
21559;DHT22;10940;48.890;8.240;2023-04-23T02:28:07;12.60;99.90
21559;DHT22;10940;48.890;8.240;2023-04-23T02:30:36;12.60;99.90
21559;DHT22;10940;48.890;8.240;2023-04-23T02:33:02;12.60;99.90
21559;DHT22;10940;48.890;8.240;2023-04-23T02:35:28;12.70;99.90
21559;DHT22;10940;48.890;8.240;2023-04-23T02:37:54;12.70;99.90
21559;DHT22;10940;48.890;8.240;2023-04-23T02:40:20;12.70;99.90
21559;DHT22;10940;48.890;8.240;2023-04-23T02:42:45;12.70;99.90
21559;DHT22;10940;48.890;8.240;2023-04-23T02:45:11;12.70;99.90
21559;DHT22;10940;48.890;8.240;2023-04-23T02:47:37;12.60;99.90
21559;DHT22;10940;48.890;8.240;2023-04-23T02:50:04;12.60;99.90
21559;DHT22;10940;48.890;8.240;2023-04-23T02:52:31;12.60;99.90
21559;DHT22;10940;48.890;8.240;2023-04-23T02:54:56;12.60;99.90
21559;DHT22;10940;48.890;8.240;2023-04-23T02:57:22;12.60;99.90
21559;DHT22;10940;48.890;8.240;2023-04-23T02:59:48;12.60;99.90
21559;DHT22;10940;48.890;8.240;2023-04-23T03:02:14;12.60;99.90
21559;DHT22;10940;48.890;8.240;2023-04-23T03:04:40;12.60;99.90
21559;DHT22;10940;48.890;8.240;2023-04-23T03:07:06;12.60;99.90
21559;DHT22;10940;48.890;8.240;2023-04-23T03:09:31;12.70;99.90
21559;DHT22;10940;48.890;8.240;2023-04-23T03:11:57;12.60;99.90
21559;DHT22;10940;48.890;8.240;2023-04-23T03:14:23;12.60;99.90
21559;DHT22;10940;48.890;8.240;2023-04-23T03:16:48;12.60;99.90
21559;DHT22;10940;48.890;8.240;2023-04-23T03:19:14;12.60;99.90
21559;DHT22;10940;48.890;8.240;2023-04-23T03:21:40;12.60;99.90
21559;DHT22;10940;48.890;8.240;2023-04-23T03:24:05;12.50;99.90
21559;DHT22;10940;48.890;8.240;2023-04-23T03:26:31;12.50;99.90
21559;DHT22;10940;48.890;8.240;2023-04-23T03:28:56;12.50;99.90
21559;DHT22;10940;48.890;8.240;2023-04-23T03:31:22;12.50;99.90
21559;DHT22;10940;48.890;8.240;2023-04-23T03:33:48;12.50;99.90
21559;DHT22;10940;48.890;8.240;2023-04-23T03:36:13;12.50;99.90
21559;DHT22;10940;48.890;8.240;2023-04-23T03:38:40;12.50;99.90
21559;DHT22;10940;48.890;8.240;2023-04-23T03:41:05;12.50;99.90
21559;DHT22;10940;48.890;8.240;2023-04-23T03:43:31;12.50;99.90
21559;DHT22;10940;48.890;8.240;2023-04-23T03:45:56;12.40;99.90
21559;DHT22;10940;48.890;8.240;2023-04-23T03:48:22;12.40;99.90
21559;DHT22;10940;48.890;8.240;2023-04-23T03:50:48;12.30;99.90
21559;DHT22;10940;48.890;8.240;2023-04-23T03:53:13;12.30;99.90
21559;DHT22;10940;48.890;8.240;2023-04-23T03:55:39;12.30;99.90
21559;DHT22;10940;48.890;8.240;2023-04-23T03:58:04;12.30;99.90
21559;DHT22;10940;48.890;8.240;2023-04-23T04:00:30;12.30;99.90
21559;DHT22;10940;48.890;8.240;2023-04-23T04:02:55;12.40;99.90
21559;DHT22;10940;48.890;8.240;2023-04-23T04:05:21;12.40;99.90
21559;DHT22;10940;48.890;8.240;2023-04-23T04:07:47;12.30;99.90
21559;DHT22;10940;48.890;8.240;2023-04-23T04:10:13;12.30;99.90
21559;DHT22;10940;48.890;8.240;2023-04-23T04:12:39;12.30;99.90
21559;DHT22;10940;48.890;8.240;2023-04-23T04:15:06;12.30;99.90
21559;DHT22;10940;48.890;8.240;2023-04-23T04:17:32;12.30;99.90
21559;DHT22;10940;48.890;8.240;2023-04-23T04:19:57;12.30;99.90
21559;DHT22;10940;48.890;8.240;2023-04-23T04:22:23;12.30;99.90
21559;DHT22;10940;48.890;8.240;2023-04-23T04:24:49;12.30;99.90
21559;DHT22;10940;48.890;8.240;2023-04-23T04:27:16;12.30;99.90
21559;DHT22;10940;48.890;8.240;2023-04-23T04:29:42;12.30;99.90
21559;DHT22;10940;48.890;8.240;2023-04-23T04:32:08;12.30;99.90
21559;DHT22;10940;48.890;8.240;2023-04-23T04:34:34;12.30;99.90
21559;DHT22;10940;48.890;8.240;2023-04-23T04:37:03;12.30;99.90
21559;DHT22;10940;48.890;8.240;2023-04-23T04:39:29;12.30;99.90
21559;DHT22;10940;48.890;8.240;2023-04-23T04:41:55;12.30;99.90
21559;DHT22;10940;48.890;8.240;2023-04-23T04:44:22;12.30;99.90
21559;DHT22;10940;48.890;8.240;2023-04-23T04:46:47;12.30;99.90
21559;DHT22;10940;48.890;8.240;2023-04-23T04:49:13;12.30;99.90
21559;DHT22;10940;48.890;8.240;2023-04-23T04:51:39;12.30;99.90
21559;DHT22;10940;48.890;8.240;2023-04-23T04:54:06;12.30;99.90
21559;DHT22;10940;48.890;8.240;2023-04-23T04:56:33;12.30;99.90
21559;DHT22;10940;48.890;8.240;2023-04-23T04:58:59;12.30;99.90
21559;DHT22;10940;48.890;8.240;2023-04-23T05:01:26;12.30;99.90
21559;DHT22;10940;48.890;8.240;2023-04-23T05:03:52;12.20;99.90
21559;DHT22;10940;48.890;8.240;2023-04-23T05:06:18;12.30;99.90
21559;DHT22;10940;48.890;8.240;2023-04-23T05:08:43;12.20;99.90
21559;DHT22;10940;48.890;8.240;2023-04-23T05:11:13;12.20;99.90
21559;DHT22;10940;48.890;8.240;2023-04-23T05:13:39;12.20;99.90
21559;DHT22;10940;48.890;8.240;2023-04-23T05:16:05;12.20;99.90
21559;DHT22;10940;48.890;8.240;2023-04-23T05:18:31;12.20;99.90
21559;DHT22;10940;48.890;8.240;2023-04-23T05:20:56;12.20;99.90
21559;DHT22;10940;48.890;8.240;2023-04-23T05:23:22;12.20;99.90
21559;DHT22;10940;48.890;8.240;2023-04-23T05:25:48;12.20;99.90
21559;DHT22;10940;48.890;8.240;2023-04-23T05:28:16;12.20;99.90
21559;DHT22;10940;48.890;8.240;2023-04-23T05:30:42;12.30;99.90
21559;DHT22;10940;48.890;8.240;2023-04-23T05:33:07;12.20;99.90
21559;DHT22;10940;48.890;8.240;2023-04-23T05:35:33;12.20;99.90
21559;DHT22;10940;48.890;8.240;2023-04-23T05:37:59;12.20;99.90
21559;DHT22;10940;48.890;8.240;2023-04-23T05:40:25;12.20;99.90
21559;DHT22;10940;48.890;8.240;2023-04-23T05:42:51;12.20;99.90
21559;DHT22;10940;48.890;8.240;2023-04-23T05:45:16;12.30;99.90
21559;DHT22;10940;48.890;8.240;2023-04-23T05:47:42;12.40;99.90
21559;DHT22;10940;48.890;8.240;2023-04-23T05:50:08;12.50;99.90
21559;DHT22;10940;48.890;8.240;2023-04-23T05:52:36;12.60;99.90
21559;DHT22;10940;48.890;8.240;2023-04-23T05:55:02;12.80;99.90
21559;DHT22;10940;48.890;8.240;2023-04-23T05:57:27;12.70;99.90
21559;DHT22;10940;48.890;8.240;2023-04-23T05:59:53;12.80;99.90
21559;DHT22;10940;48.890;8.240;2023-04-23T06:02:18;12.80;99.90
21559;DHT22;10940;48.890;8.240;2023-04-23T06:04:44;12.90;99.90
21559;DHT22;10940;48.890;8.240;2023-04-23T06:07:10;12.90;99.90
21559;DHT22;10940;48.890;8.240;2023-04-23T06:09:36;12.90;99.90
21559;DHT22;10940;48.890;8.240;2023-04-23T06:12:02;12.90;99.90
21559;DHT22;10940;48.890;8.240;2023-04-23T06:14:28;13.00;99.90
21559;DHT22;10940;48.890;8.240;2023-04-23T06:16:54;13.00;99.90
21559;DHT22;10940;48.890;8.240;2023-04-23T06:19:19;13.00;99.90
21559;DHT22;10940;48.890;8.240;2023-04-23T06:21:45;13.00;99.90
21559;DHT22;10940;48.890;8.240;2023-04-23T06:24:10;13.00;99.90
21559;DHT22;10940;48.890;8.240;2023-04-23T06:26:36;12.90;99.90
21559;DHT22;10940;48.890;8.240;2023-04-23T06:29:02;12.90;99.90
21559;DHT22;10940;48.890;8.240;2023-04-23T06:31:27;12.90;99.90
21559;DHT22;10940;48.890;8.240;2023-04-23T06:33:53;12.90;99.90
21559;DHT22;10940;48.890;8.240;2023-04-23T06:36:19;12.90;99.90
21559;DHT22;10940;48.890;8.240;2023-04-23T06:38:44;13.00;99.90
21559;DHT22;10940;48.890;8.240;2023-04-23T06:41:10;13.10;99.90
21559;DHT22;10940;48.890;8.240;2023-04-23T06:43:37;13.10;99.90
21559;DHT22;10940;48.890;8.240;2023-04-23T06:46:02;13.30;99.90
21559;DHT22;10940;48.890;8.240;2023-04-23T06:48:28;13.30;99.90
21559;DHT22;10940;48.890;8.240;2023-04-23T06:50:53;13.40;99.90
21559;DHT22;10940;48.890;8.240;2023-04-23T06:53:20;13.50;99.90
21559;DHT22;10940;48.890;8.240;2023-04-23T06:55:46;13.70;99.90
21559;DHT22;10940;48.890;8.240;2023-04-23T06:58:14;13.90;99.90
21559;DHT22;10940;48.890;8.240;2023-04-23T07:00:39;14.00;99.90
21559;DHT22;10940;48.890;8.240;2023-04-23T07:03:05;14.10;99.90
21559;DHT22;10940;48.890;8.240;2023-04-23T07:05:31;14.20;99.90
21559;DHT22;10940;48.890;8.240;2023-04-23T07:07:56;14.30;99.90
21559;DHT22;10940;48.890;8.240;2023-04-23T07:10:22;14.40;99.90
21559;DHT22;10940;48.890;8.240;2023-04-23T07:12:48;14.60;99.90
21559;DHT22;10940;48.890;8.240;2023-04-23T07:15:14;14.70;99.90
21559;DHT22;10940;48.890;8.240;2023-04-23T07:17:39;14.80;99.90
21559;DHT22;10940;48.890;8.240;2023-04-23T07:20:06;14.80;99.90
21559;DHT22;10940;48.890;8.240;2023-04-23T07:22:33;14.90;99.90
21559;DHT22;10940;48.890;8.240;2023-04-23T07:24:59;14.90;99.90
21559;DHT22;10940;48.890;8.240;2023-04-23T07:27:25;14.90;99.90
21559;DHT22;10940;48.890;8.240;2023-04-23T07:29:51;14.90;99.90
21559;DHT22;10940;48.890;8.240;2023-04-23T07:32:16;14.80;99.90
21559;DHT22;10940;48.890;8.240;2023-04-23T07:34:42;14.80;99.90
21559;DHT22;10940;48.890;8.240;2023-04-23T07:37:07;14.80;99.90
21559;DHT22;10940;48.890;8.240;2023-04-23T07:39:34;14.70;99.90
21559;DHT22;10940;48.890;8.240;2023-04-23T07:41:59;14.80;99.90
21559;DHT22;10940;48.890;8.240;2023-04-23T07:44:26;14.80;99.90
21559;DHT22;10940;48.890;8.240;2023-04-23T07:46:52;14.80;99.90
21559;DHT22;10940;48.890;8.240;2023-04-23T07:49:17;14.90;99.90
21559;DHT22;10940;48.890;8.240;2023-04-23T07:51:43;14.90;99.90
21559;DHT22;10940;48.890;8.240;2023-04-23T07:54:09;15.00;99.90
21559;DHT22;10940;48.890;8.240;2023-04-23T07:56:34;15.10;99.90
21559;DHT22;10940;48.890;8.240;2023-04-23T07:59:01;15.10;99.90
21559;DHT22;10940;48.890;8.240;2023-04-23T08:01:27;15.10;99.90
21559;DHT22;10940;48.890;8.240;2023-04-23T08:03:53;15.10;99.90
21559;DHT22;10940;48.890;8.240;2023-04-23T08:06:21;15.10;99.90
21559;DHT22;10940;48.890;8.240;2023-04-23T08:08:48;15.10;99.90
21559;DHT22;10940;48.890;8.240;2023-04-23T08:11:13;15.10;99.90
21559;DHT22;10940;48.890;8.240;2023-04-23T08:13:39;15.10;99.90
21559;DHT22;10940;48.890;8.240;2023-04-23T08:16:05;15.00;99.90
21559;DHT22;10940;48.890;8.240;2023-04-23T08:18:31;15.00;99.90
21559;DHT22;10940;48.890;8.240;2023-04-23T08:20:57;15.00;99.90
21559;DHT22;10940;48.890;8.240;2023-04-23T08:23:23;15.00;99.90
21559;DHT22;10940;48.890;8.240;2023-04-23T08:25:49;15.00;99.90
21559;DHT22;10940;48.890;8.240;2023-04-23T08:28:14;15.10;99.90
21559;DHT22;10940;48.890;8.240;2023-04-23T08:30:40;15.40;99.90
21559;DHT22;10940;48.890;8.240;2023-04-23T08:33:06;15.50;99.90
21559;DHT22;10940;48.890;8.240;2023-04-23T08:35:31;15.70;99.90
21559;DHT22;10940;48.890;8.240;2023-04-23T08:37:57;15.90;99.90
21559;DHT22;10940;48.890;8.240;2023-04-23T08:40:23;16.10;99.90
21559;DHT22;10940;48.890;8.240;2023-04-23T08:42:50;16.20;99.90
21559;DHT22;10940;48.890;8.240;2023-04-23T08:45:17;16.40;99.90
21559;DHT22;10940;48.890;8.240;2023-04-23T08:47:43;16.60;99.90
21559;DHT22;10940;48.890;8.240;2023-04-23T08:50:13;16.70;99.90
21559;DHT22;10940;48.890;8.240;2023-04-23T08:52:41;16.80;99.90
21559;DHT22;10940;48.890;8.240;2023-04-23T08:55:10;16.80;99.90
21559;DHT22;10940;48.890;8.240;2023-04-23T08:57:39;16.90;99.90
21559;DHT22;10940;48.890;8.240;2023-04-23T09:00:07;16.90;99.90
21559;DHT22;10940;48.890;8.240;2023-04-23T09:02:35;17.00;99.90
21559;DHT22;10940;48.890;8.240;2023-04-23T09:05:05;17.00;99.90
21559;DHT22;10940;48.890;8.240;2023-04-23T09:07:30;16.90;99.90
21559;DHT22;10940;48.890;8.240;2023-04-23T09:09:57;16.90;99.90
21559;DHT22;10940;48.890;8.240;2023-04-23T09:12:23;17.10;99.90
21559;DHT22;10940;48.890;8.240;2023-04-23T09:14:49;17.10;99.90
21559;DHT22;10940;48.890;8.240;2023-04-23T09:17:17;17.20;99.90
21559;DHT22;10940;48.890;8.240;2023-04-23T09:19:44;17.20;99.90
21559;DHT22;10940;48.890;8.240;2023-04-23T09:22:09;17.30;99.90
21559;DHT22;10940;48.890;8.240;2023-04-23T09:24:35;17.30;99.90
21559;DHT22;10940;48.890;8.240;2023-04-23T09:27:01;17.20;99.90
21559;DHT22;10940;48.890;8.240;2023-04-23T09:29:29;17.20;99.90
21559;DHT22;10940;48.890;8.240;2023-04-23T09:32:08;17.30;99.90
21559;DHT22;10940;48.890;8.240;2023-04-23T09:34:35;17.40;99.90
21559;DHT22;10940;48.890;8.240;2023-04-23T09:37:05;17.60;99.90
21559;DHT22;10940;48.890;8.240;2023-04-23T09:39:33;17.80;99.90
21559;DHT22;10940;48.890;8.240;2023-04-23T09:42:04;18.00;99.90
21559;DHT22;10940;48.890;8.240;2023-04-23T09:44:33;18.20;99.90
21559;DHT22;10940;48.890;8.240;2023-04-23T09:47:08;18.50;99.90
21559;DHT22;10940;48.890;8.240;2023-04-23T09:49:47;18.60;99.90
21559;DHT22;10940;48.890;8.240;2023-04-23T09:52:13;18.60;99.90
21559;DHT22;10940;48.890;8.240;2023-04-23T09:54:39;18.70;99.90
21559;DHT22;10940;48.890;8.240;2023-04-23T09:57:05;18.70;99.90
21559;DHT22;10940;48.890;8.240;2023-04-23T09:59:33;18.80;99.90
21559;DHT22;10940;48.890;8.240;2023-04-23T10:02:02;18.90;99.90
21559;DHT22;10940;48.890;8.240;2023-04-23T10:04:29;19.00;99.90
21559;DHT22;10940;48.890;8.240;2023-04-23T10:07:02;18.90;99.90
21559;DHT22;10940;48.890;8.240;2023-04-23T10:09:29;18.90;99.90
21559;DHT22;10940;48.890;8.240;2023-04-23T10:11:57;18.80;99.90
21559;DHT22;10940;48.890;8.240;2023-04-23T10:14:25;18.90;99.90
21559;DHT22;10940;48.890;8.240;2023-04-23T10:16:52;19.00;99.90
21559;DHT22;10940;48.890;8.240;2023-04-23T10:19:22;19.00;99.90
21559;DHT22;10940;48.890;8.240;2023-04-23T10:24:25;19.00;99.90
21559;DHT22;10940;48.890;8.240;2023-04-23T10:27:02;19.00;99.90
21559;DHT22;10940;48.890;8.240;2023-04-23T10:29:32;19.00;99.90
21559;DHT22;10940;48.890;8.240;2023-04-23T10:32:00;19.00;99.90
21559;DHT22;10940;48.890;8.240;2023-04-23T10:34:28;19.10;99.90
21559;DHT22;10940;48.890;8.240;2023-04-23T10:36:55;19.10;99.90
21559;DHT22;10940;48.890;8.240;2023-04-23T10:39:23;19.20;99.90
21559;DHT22;10940;48.890;8.240;2023-04-23T10:41:49;19.20;99.90
21559;DHT22;10940;48.890;8.240;2023-04-23T10:44:19;19.10;99.90
21559;DHT22;10940;48.890;8.240;2023-04-23T10:46:55;19.00;99.90
21559;DHT22;10940;48.890;8.240;2023-04-23T10:49:23;19.00;99.90
21559;DHT22;10940;48.890;8.240;2023-04-23T10:52:01;18.90;99.90
21559;DHT22;10940;48.890;8.240;2023-04-23T10:54:31;19.10;99.90
21559;DHT22;10940;48.890;8.240;2023-04-23T10:57:01;19.30;99.90
21559;DHT22;10940;48.890;8.240;2023-04-23T10:59:29;19.30;99.90
21559;DHT22;10940;48.890;8.240;2023-04-23T11:01:57;19.30;99.90
21559;DHT22;10940;48.890;8.240;2023-04-23T11:04:25;19.40;99.90
21559;DHT22;10940;48.890;8.240;2023-04-23T11:06:57;19.50;99.90
21559;DHT22;10940;48.890;8.240;2023-04-23T11:09:46;19.40;99.90
21559;DHT22;10940;48.890;8.240;2023-04-23T11:14:53;19.60;99.90
21559;DHT22;10940;48.890;8.240;2023-04-23T11:20:18;19.80;99.90
21559;DHT22;10940;48.890;8.240;2023-04-23T11:22:46;19.80;99.90
21559;DHT22;10940;48.890;8.240;2023-04-23T11:25:12;20.00;99.90
21559;DHT22;10940;48.890;8.240;2023-04-23T11:27:42;20.10;99.90
21559;DHT22;10940;48.890;8.240;2023-04-23T11:30:13;20.10;99.90
21559;DHT22;10940;48.890;8.240;2023-04-23T11:32:41;20.40;99.90
21559;DHT22;10940;48.890;8.240;2023-04-23T11:35:09;20.60;99.90
21559;DHT22;10940;48.890;8.240;2023-04-23T11:37:41;20.90;99.90
21559;DHT22;10940;48.890;8.240;2023-04-23T11:40:08;20.90;99.90
21559;DHT22;10940;48.890;8.240;2023-04-23T11:42:42;21.00;99.90
21559;DHT22;10940;48.890;8.240;2023-04-23T11:45:18;21.10;99.90
21559;DHT22;10940;48.890;8.240;2023-04-23T11:47:45;21.50;99.90
21559;DHT22;10940;48.890;8.240;2023-04-23T11:50:26;21.70;99.90
21559;DHT22;10940;48.890;8.240;2023-04-23T11:52:52;21.50;99.90
21559;DHT22;10940;48.890;8.240;2023-04-23T11:55:19;21.30;99.90
21559;DHT22;10940;48.890;8.240;2023-04-23T11:57:47;21.20;99.90
21559;DHT22;10940;48.890;8.240;2023-04-23T12:02:51;21.60;99.90
21559;DHT22;10940;48.890;8.240;2023-04-23T12:05:30;22.10;99.90
21559;DHT22;10940;48.890;8.240;2023-04-23T12:10:32;22.80;99.90
21559;DHT22;10940;48.890;8.240;2023-04-23T12:12:58;22.80;99.90
21559;DHT22;10940;48.890;8.240;2023-04-23T12:15:23;22.80;99.90
21559;DHT22;10940;48.890;8.240;2023-04-23T12:17:50;22.80;99.90
21559;DHT22;10940;48.890;8.240;2023-04-23T12:20:18;22.80;99.90
21559;DHT22;10940;48.890;8.240;2023-04-23T12:22:44;22.70;99.90
21559;DHT22;10940;48.890;8.240;2023-04-23T12:25:10;22.70;99.90
21559;DHT22;10940;48.890;8.240;2023-04-23T12:27:40;22.80;99.90
21559;DHT22;10940;48.890;8.240;2023-04-23T12:30:07;22.80;99.90
21559;DHT22;10940;48.890;8.240;2023-04-23T12:32:34;22.90;99.90
21559;DHT22;10940;48.890;8.240;2023-04-23T12:34:59;23.10;99.90
21559;DHT22;10940;48.890;8.240;2023-04-23T12:37:27;23.20;99.90
21559;DHT22;10940;48.890;8.240;2023-04-23T12:39:53;23.20;99.80
21559;DHT22;10940;48.890;8.240;2023-04-23T12:42:21;23.00;99.60
21559;DHT22;10940;48.890;8.240;2023-04-23T12:44:47;22.70;99.70
21559;DHT22;10940;48.890;8.240;2023-04-23T12:47:12;22.40;99.80
21559;DHT22;10940;48.890;8.240;2023-04-23T12:49:44;22.40;99.20
21559;DHT22;10940;48.890;8.240;2023-04-23T12:52:10;22.50;99.60
21559;DHT22;10940;48.890;8.240;2023-04-23T12:54:37;22.70;99.90
21559;DHT22;10940;48.890;8.240;2023-04-23T12:57:05;23.00;99.50
21559;DHT22;10940;48.890;8.240;2023-04-23T12:59:31;23.20;97.70
21559;DHT22;10940;48.890;8.240;2023-04-23T13:01:58;23.30;98.20
21559;DHT22;10940;48.890;8.240;2023-04-23T13:04:27;23.50;99.40
21559;DHT22;10940;48.890;8.240;2023-04-23T13:06:52;23.90;97.10
21559;DHT22;10940;48.890;8.240;2023-04-23T13:09:19;24.00;97.40
21559;DHT22;10940;48.890;8.240;2023-04-23T13:11:46;24.10;97.60
21559;DHT22;10940;48.890;8.240;2023-04-23T13:14:14;24.30;96.90
21559;DHT22;10940;48.890;8.240;2023-04-23T13:16:40;24.20;97.30
21559;DHT22;10940;48.890;8.240;2023-04-23T13:19:06;23.90;98.50
21559;DHT22;10940;48.890;8.240;2023-04-23T13:21:32;23.90;98.30
21559;DHT22;10940;48.890;8.240;2023-04-23T13:23:57;24.00;97.20
21559;DHT22;10940;48.890;8.240;2023-04-23T13:26:23;24.10;96.60
21559;DHT22;10940;48.890;8.240;2023-04-23T13:28:49;24.20;96.20
21559;DHT22;10940;48.890;8.240;2023-04-23T13:31:14;24.00;95.50
21559;DHT22;10940;48.890;8.240;2023-04-23T13:33:40;23.80;96.60
21559;DHT22;10940;48.890;8.240;2023-04-23T13:36:06;23.60;95.60
21559;DHT22;10940;48.890;8.240;2023-04-23T13:38:33;23.40;96.10
21559;DHT22;10940;48.890;8.240;2023-04-23T13:40:59;23.30;98.40
21559;DHT22;10940;48.890;8.240;2023-04-23T13:43:25;23.10;96.30
21559;DHT22;10940;48.890;8.240;2023-04-23T13:45:52;22.90;97.80
21559;DHT22;10940;48.890;8.240;2023-04-23T13:48:18;22.70;97.30
21559;DHT22;10940;48.890;8.240;2023-04-23T13:50:44;22.60;98.10
21559;DHT22;10940;48.890;8.240;2023-04-23T13:53:10;22.50;98.80
21559;DHT22;10940;48.890;8.240;2023-04-23T13:55:36;22.40;99.90
21559;DHT22;10940;48.890;8.240;2023-04-23T13:58:05;22.30;99.50
21559;DHT22;10940;48.890;8.240;2023-04-23T14:00:31;22.30;98.30
21559;DHT22;10940;48.890;8.240;2023-04-23T14:02:57;22.40;98.90
21559;DHT22;10940;48.890;8.240;2023-04-23T14:05:23;22.50;97.40
21559;DHT22;10940;48.890;8.240;2023-04-23T14:07:49;22.40;97.80
21559;DHT22;10940;48.890;8.240;2023-04-23T14:10:15;22.30;98.10
21559;DHT22;10940;48.890;8.240;2023-04-23T14:12:41;22.30;97.50
21559;DHT22;10940;48.890;8.240;2023-04-23T14:15:10;22.20;97.60
21559;DHT22;10940;48.890;8.240;2023-04-23T14:17:36;22.10;98.40
21559;DHT22;10940;48.890;8.240;2023-04-23T14:20:04;21.90;99.40
21559;DHT22;10940;48.890;8.240;2023-04-23T14:22:30;22.00;98.80
21559;DHT22;10940;48.890;8.240;2023-04-23T14:25:01;22.10;96.70
21559;DHT22;10940;48.890;8.240;2023-04-23T14:27:31;22.00;96.90
21559;DHT22;10940;48.890;8.240;2023-04-23T14:30:02;21.90;96.80
21559;DHT22;10940;48.890;8.240;2023-04-23T14:32:30;21.90;97.00
21559;DHT22;10940;48.890;8.240;2023-04-23T14:34:55;21.90;98.50
21559;DHT22;10940;48.890;8.240;2023-04-23T14:37:21;22.10;98.00
21559;DHT22;10940;48.890;8.240;2023-04-23T14:39:47;22.10;98.60
21559;DHT22;10940;48.890;8.240;2023-04-23T14:42:12;22.20;98.90
21559;DHT22;10940;48.890;8.240;2023-04-23T14:44:38;22.30;99.40
21559;DHT22;10940;48.890;8.240;2023-04-23T14:47:04;22.30;99.20
21559;DHT22;10940;48.890;8.240;2023-04-23T14:49:32;22.40;97.60
21559;DHT22;10940;48.890;8.240;2023-04-23T14:51:58;22.30;98.80
21559;DHT22;10940;48.890;8.240;2023-04-23T14:54:23;22.40;97.80
21559;DHT22;10940;48.890;8.240;2023-04-23T14:56:50;22.40;98.60
21559;DHT22;10940;48.890;8.240;2023-04-23T14:59:16;22.30;97.90
21559;DHT22;10940;48.890;8.240;2023-04-23T15:01:42;22.30;96.80
21559;DHT22;10940;48.890;8.240;2023-04-23T15:04:09;22.20;98.90
21559;DHT22;10940;48.890;8.240;2023-04-23T15:06:35;21.90;98.30
21559;DHT22;10940;48.890;8.240;2023-04-23T15:09:01;21.70;98.10
21559;DHT22;10940;48.890;8.240;2023-04-23T15:11:27;21.60;99.00
21559;DHT22;10940;48.890;8.240;2023-04-23T15:14:07;21.50;98.40
21559;DHT22;10940;48.890;8.240;2023-04-23T15:16:34;21.40;99.40
21559;DHT22;10940;48.890;8.240;2023-04-23T15:19:03;21.30;99.40
21559;DHT22;10940;48.890;8.240;2023-04-23T15:21:30;21.20;98.20
21559;DHT22;10940;48.890;8.240;2023-04-23T15:23:56;21.10;98.00
21559;DHT22;10940;48.890;8.240;2023-04-23T15:26:22;20.90;99.70
21559;DHT22;10940;48.890;8.240;2023-04-23T15:28:48;20.50;99.90
21559;DHT22;10940;48.890;8.240;2023-04-23T15:31:15;19.90;99.90
21559;DHT22;10940;48.890;8.240;2023-04-23T15:33:40;19.30;99.90
21559;DHT22;10940;48.890;8.240;2023-04-23T15:36:06;18.60;99.90
21559;DHT22;10940;48.890;8.240;2023-04-23T15:38:32;17.90;99.90
21559;DHT22;10940;48.890;8.240;2023-04-23T15:40:59;17.40;99.90